Hibbing, MN

12:30 PM CST on December 21, 2014 (GMT -0600)
Chisholm-hibbing | Change Station
CLOSE
Current Station
Airport
Location: Hibbing,
Elevation: 1352 ft
Nearby Weather Stations

Elev 1352 ft 47.39 °N, 92.84 °W | Updated 37 minutes ago

Overcast
Overcast
31 °F
Feels Like 23 °F
N
9
Wind Variable Wind from SSE

Today
High -- | Low -- °F
--% Chance of Precip.
Yesterday
High -- | Low -- °F
Precip. -- in
7:55 AM 4:23 PM
Waning Crescent, 0% visible
Pressure 29.84 in
Visibility 2.5 miles
Clouds Overcast 400 ft
Windchill 23 °F
Dew Point 28 °F
Humidity 89%
Rainfall 0.00 in
Snow Depth Not available.
UV 0 out of 12
Pollen .10 out of 12
Air Quality Not available.
Flu Activity Not available.
METAR KHIB 211753Z AUTO 16008KT 2 1/2SM BR OVC004 M01/M02 A2978 RMK AO2 SLP104 T10061022 11006 21017 58017

More Conditions Fewer Conditions

Pressure 29.84 in
Visibility 2.5 miles
Clouds Overcast 400 ft
Windchill 23 °F
Dew Point 28 °F
Humidity 89%
Rainfall 0.00 in
Snow Depth Not available.
UV 0 out of 12
Pollen .10 out of 12
Air Quality Not available.
Flu Activity Not available.
METAR KHIB 211753Z AUTO 16008KT 2 1/2SM BR OVC004 M01/M02 A2978 RMK AO2 SLP104 T10061022 11006 21017 58017

More Conditions Fewer Conditions

10-Day Weather Forecast

Almanac

Astronomy

Dec. 21, 2014 Rise Set
Actual Time
Civil Twilight
Nautical Twilight
Astronomical Twilight
Moon
Length of Visible Light
Length of Day
Tomorrow will be .
, % of the Moon is Illuminated

Today's Extremes

State Highs State Lows

Community

WunderPhotos

Upload Photos

1,779,448 photos uploaded!

WunderBlogs® & News

Nearby

Air Quality

  Air Quality AQ Index Pollutant
Not available.

Snow Depth

Station Depth Elevation

Earthquake Activity

City Distance Mag. Time & Date
Minimum magnitude displayed is 2.5.

Coastal Water Temperatures

Place Temperature

Nearby Weather Stations